Time;durP1;ratioP1;P1;durP2;ratioP2;P2;SDS_P1;SDS_P2;PMS_P1;PMS_P2;Temp;Humidity;BMP_temperature;BMP_pressure;BME280_temperature;BME280_humidity;BME280_pressure;Samples;Min_cycle;Max_cycle;Signal;HPM_P1;HPM_P2
2023/07/23 00:01:57;;;;;;;8.50;7.60;;;;;;;17.69;84.45;100421.75;5027706;28;20204;-82
2023/07/23 00:04:23;;;;;;;8.97;7.37;;;;;;;17.64;84.68;100415.97;5032624;28;20239;-82
2023/07/23 00:06:50;;;;;;;8.63;7.67;;;;;;;17.58;84.93;100411.13;5029444;28;20217;-81
2023/07/23 00:09:17;;;;;;;7.80;7.00;;;;;;;17.51;84.58;100407.34;5028271;28;20206;-83
2023/07/23 00:11:44;;;;;;;8.53;7.73;;;;;;;17.40;85.17;100405.66;5029457;28;20220;-82
2023/07/23 00:14:11;;;;;;;9.20;8.23;;;;;;;17.33;85.84;100401.88;5029885;28;20224;-81
2023/07/23 00:16:37;;;;;;;9.67;7.60;;;;;;;17.25;86.58;100399.91;5028105;28;20221;-82
2023/07/23 00:19:04;;;;;;;7.77;7.07;;;;;;;17.23;86.95;100395.66;5026269;28;20310;-82
2023/07/23 00:21:31;;;;;;;8.87;7.97;;;;;;;17.19;87.91;100394.28;5029115;28;20215;-80
2023/07/23 00:23:57;;;;;;;8.20;7.27;;;;;;;17.17;88.60;100386.34;5027332;28;20222;-84
2023/07/23 00:26:27;;;;;;;8.83;7.50;;;;;;;17.14;89.12;100393.84;5026611;28;20203;-82
2023/07/23 00:28:53;;;;;;;9.90;7.50;;;;;;;17.11;89.51;100386.06;5030024;28;20221;-83
2023/07/23 00:31:19;;;;;;;9.17;7.97;;;;;;;17.08;89.59;100379.13;5031373;28;20214;-83
2023/07/23 00:33:46;;;;;;;10.50;8.70;;;;;;;17.04;89.59;100380.41;5028392;28;20240;-84
2023/07/23 00:36:13;;;;;;;10.67;7.80;;;;;;;16.98;90.03;100373.78;5032757;28;20213;-83
2023/07/23 00:38:39;;;;;;;9.67;7.83;;;;;;;16.94;90.22;100380.44;5029792;28;20239;-82
2023/07/23 00:41:06;;;;;;;9.77;7.77;;;;;;;16.88;90.28;100375.63;5031243;28;20212;-81
2023/07/23 00:43:33;;;;;;;8.60;7.77;;;;;;;16.86;90.76;100371.38;5027738;28;20226;-81
2023/07/23 00:46:00;;;;;;;9.73;7.83;;;;;;;16.81;91.02;100368.28;5027405;28;20679;-82
2023/07/23 00:48:26;;;;;;;8.40;7.60;;;;;;;16.77;91.19;100367.72;5028254;28;20216;-82
2023/07/23 00:50:55;;;;;;;11.03;9.27;;;;;;;16.73;91.66;100363.63;5032691;28;20211;-82
2023/07/23 00:53:25;;;;;;;9.23;7.27;;;;;;;16.69;91.94;100361.34;5030593;28;20641;-81
2023/07/23 00:55:52;;;;;;;12.40;8.30;;;;;;;16.63;92.42;100355.56;5030729;28;20248;-82
2023/07/23 00:58:19;;;;;;;10.90;8.47;;;;;;;16.60;93.15;100345.06;5032346;28;20239;-82
2023/07/23 01:00:47;;;;;;;11.13;8.93;;;;;;;16.60;92.64;100346.91;5031106;28;20222;-81
2023/07/23 01:03:14;;;;;;;12.47;8.90;;;;;;;16.55;93.35;100344.63;5029026;28;20233;-81
2023/07/23 01:05:43;;;;;;;12.87;10.20;;;;;;;16.52;94.43;100334.16;5032280;28;20227;-82
2023/07/23 01:08:11;;;;;;;14.53;10.17;;;;;;;16.51;95.00;100331.63;5032052;28;20210;-83
2023/07/23 01:10:37;;;;;;;11.47;9.20;;;;;;;16.49;95.65;100326.38;5033240;28;20205;-82
2023/07/23 01:13:04;;;;;;;10.60;9.53;;;;;;;16.48;96.04;100322.00;5034110;28;20325;-82
2023/07/23 01:15:32;;;;;;;10.50;9.40;;;;;;;16.47;96.22;100317.63;5029033;28;20247;-82
2023/07/23 01:18:01;;;;;;;12.60;10.37;;;;;;;16.44;96.66;100320.59;5029963;28;20226;-81
2023/07/23 01:20:28;;;;;;;11.33;9.93;;;;;;;16.42;96.90;100314.53;5032593;28;20680;-81
2023/07/23 01:22:56;;;;;;;11.40;10.13;;;;;;;16.40;97.18;100310.28;5032375;28;20228;-80
2023/07/23 01:25:22;;;;;;;11.37;9.97;;;;;;;16.39;97.50;100303.19;5031548;28;20216;-81
2023/07/23 01:27:49;;;;;;;11.80;10.13;;;;;;;16.37;97.81;100295.28;5031196;28;20209;-81
2023/07/23 01:30:15;;;;;;;11.43;10.23;;;;;;;16.33;97.63;100292.03;5032259;28;20704;-80
2023/07/23 01:32:42;;;;;;;12.63;10.13;;;;;;;16.31;97.95;100285.09;5030524;28;20241;-81
2023/07/23 01:35:14;;;;;;;10.73;9.70;;;;;;;16.28;98.26;100290.78;5031627;28;20224;-81
2023/07/23 01:37:40;;;;;;;11.63;10.43;;;;;;;16.25;98.65;100289.22;5029895;28;20264;-81
2023/07/23 01:40:09;;;;;;;13.00;10.73;;;;;;;16.23;98.81;100285.81;5030838;28;20203;-80
2023/07/23 01:42:36;;;;;;;12.27;10.50;;;;;;;16.22;99.20;100280.59;5032124;28;20228;-82
2023/07/23 01:45:03;;;;;;;16.27;12.37;;;;;;;16.21;99.59;100284.25;5024487;28;20559;-81
2023/07/23 01:47:29;;;;;;;11.53;10.37;;;;;;;16.21;99.85;100281.56;5030817;28;20247;-81
2023/07/23 01:49:56;;;;;;;12.00;10.40;;;;;;;16.20;99.63;100279.88;5033327;28;22129;-81
2023/07/23 01:52:23;;;;;;;12.67;10.10;;;;;;;16.16;99.79;100275.78;5024986;28;20203;-82
2023/07/23 01:54:49;;;;;;;10.77;9.67;;;;;;;16.14;100.00;100275.06;5028233;28;20685;-80
2023/07/23 01:57:17;;;;;;;12.10;10.40;;;;;;;16.10;100.00;100266.47;5029830;28;20204;-81
2023/07/23 01:59:45;;;;;;;17.53;10.97;;;;;;;16.09;100.00;100264.75;5031392;28;20236;-81
2023/07/23 02:02:12;;;;;;;12.27;10.93;;;;;;;16.07;100.00;100271.25;5030433;28;20206;-82
2023/07/23 02:04:38;;;;;;;11.63;10.47;;;;;;;16.06;100.00;100258.81;5033716;28;20228;-81
2023/07/23 02:07:05;;;;;;;11.63;10.43;;;;;;;16.05;100.00;100273.25;5029243;28;20212;-81
2023/07/23 02:09:31;;;;;;;11.70;9.77;;;;;;;16.04;100.00;100266.16;5031386;28;20198;-80
2023/07/23 02:11:58;;;;;;;11.20;9.80;;;;;;;15.99;100.00;100263.91;5030422;28;20229;-82
2023/07/23 02:14:26;;;;;;;11.40;9.93;;;;;;;15.96;100.00;100262.34;5032135;28;20223;-82
2023/07/23 02:16:52;;;;;;;12.90;9.97;;;;;;;15.93;100.00;100259.09;5029419;28;20206;-81
2023/07/23 02:19:19;;;;;;;10.87;9.73;;;;;;;15.93;100.00;100256.41;5031663;28;20310;-81
2023/07/23 02:21:46;;;;;;;10.40;9.23;;;;;;;15.90;100.00;100254.88;5031405;28;20235;-80
2023/07/23 02:24:12;;;;;;;10.07;9.07;;;;;;;15.88;100.00;100256.84;5031111;28;20240;-80
2023/07/23 02:26:39;;;;;;;12.93;10.00;;;;;;;15.87;100.00;100252.44;5028761;28;20216;-80
2023/07/23 02:29:05;;;;;;;11.17;9.40;;;;;;;15.86;100.00;100252.59;5024656;28;20210;-79
2023/07/23 02:31:33;;;;;;;11.90;10.63;;;;;;;15.84;100.00;100239.31;5024109;28;20208;-81
2023/07/23 02:33:59;;;;;;;10.37;8.80;;;;;;;15.83;100.00;100242.97;5031285;28;20231;-82
2023/07/23 02:36:26;;;;;;;12.13;9.50;;;;;;;15.81;100.00;100247.63;5032378;28;20210;-81
2023/07/23 02:38:52;;;;;;;11.97;9.17;;;;;;;15.79;100.00;100246.91;5030862;28;20228;-81
2023/07/23 02:41:19;;;;;;;12.17;9.47;;;;;;;15.78;100.00;100239.84;5027123;28;20205;-82
2023/07/23 02:43:45;;;;;;;12.17;10.20;;;;;;;15.76;100.00;100236.50;5026140;28;20220;-82
2023/07/23 02:46:12;;;;;;;11.93;9.73;;;;;;;15.76;100.00;100239.19;5030579;28;20205;-82
2023/07/23 02:48:40;;;;;;;12.93;10.17;;;;;;;15.75;100.00;100232.09;5030662;28;20210;-85
2023/07/23 02:51:06;;;;;;;11.57;10.10;;;;;;;15.76;100.00;100230.28;5029788;28;20570;-83
2023/07/23 02:53:33;;;;;;;11.70;10.50;;;;;;;15.75;100.00;100233.94;5026896;28;20808;-83
2023/07/23 02:55:59;;;;;;;11.60;10.23;;;;;;;15.76;100.00;100241.84;5032576;28;20683;-83
2023/07/23 02:58:26;;;;;;;12.07;10.03;;;;;;;15.76;100.00;100238.31;5033550;28;20595;-82
2023/07/23 03:00:55;;;;;;;11.67;9.87;;;;;;;15.78;100.00;100231.78;5031770;28;20636;-84
2023/07/23 03:03:22;;;;;;;14.47;10.23;;;;;;;15.78;100.00;100228.25;5028176;28;20315;-84
2023/07/23 03:05:49;;;;;;;14.07;10.57;;;;;;;15.78;100.00;100230.94;5033541;28;20223;-83
2023/07/23 03:08:16;;;;;;;14.43;11.33;;;;;;;15.75;100.00;100223.19;5033168;28;20202;-84
2023/07/23 03:10:44;;;;;;;12.37;10.50;;;;;;;15.72;100.00;100216.28;5036171;28;20211;-82
2023/07/23 03:13:10;;;;;;;11.33;10.20;;;;;;;15.69;100.00;100211.19;5028619;28;20499;-81
2023/07/23 03:15:37;;;;;;;10.77;9.47;;;;;;;15.67;100.00;100202.41;5026614;28;20207;-81
2023/07/23 03:18:04;;;;;;;13.97;10.07;;;;;;;15.67;100.00;100209.63;5024182;28;20209;-81
2023/07/23 03:20:30;;;;;;;12.63;10.57;;;;;;;15.65;100.00;100196.34;5029751;28;20219;-82
2023/07/23 03:22:58;;;;;;;17.40;10.43;;;;;;;15.65;100.00;100201.69;5024672;28;20236;-84
2023/07/23 03:25:26;;;;;;;16.33;10.30;;;;;;;15.65;100.00;100199.00;5031550;28;20208;-80
2023/07/23 03:27:53;;;;;;;13.47;10.53;;;;;;;15.65;100.00;100195.47;5029937;28;20219;-82
2023/07/23 03:30:19;;;;;;;11.83;10.63;;;;;;;15.65;100.00;100195.47;5028697;28;20676;-82
2023/07/23 03:32:46;;;;;;;13.17;10.80;;;;;;;15.65;100.00;100184.75;5027343;28;20616;-83
2023/07/23 03:35:12;;;;;;;15.40;10.40;;;;;;;15.62;100.00;100183.19;5031995;28;20209;-83
2023/07/23 03:37:39;;;;;;;11.07;9.67;;;;;;;15.61;100.00;100184.16;5026348;28;20735;-84
2023/07/23 03:40:08;;;;;;;11.50;10.13;;;;;;;15.59;100.00;100175.41;5031026;28;20224;-82
2023/07/23 03:42:34;;;;;;;13.53;10.53;;;;;;;15.58;100.00;100173.75;5033715;28;20227;-82
2023/07/23 03:45:01;;;;;;;13.17;10.10;;;;;;;15.56;100.00;100170.34;5025382;28;20208;-83
2023/07/23 03:47:27;;;;;;;12.57;10.80;;;;;;;15.54;100.00;100166.91;5031329;28;20684;-82
2023/07/23 03:49:54;;;;;;;11.60;10.40;;;;;;;15.52;100.00;100168.91;5031006;28;20613;-81
2023/07/23 03:52:21;;;;;;;11.67;9.90;;;;;;;15.51;100.00;100170.72;5030015;28;20638;-80
2023/07/23 03:54:48;;;;;;;10.90;9.73;;;;;;;15.48;100.00;100162.94;5031435;28;21203;-82
2023/07/23 03:57:16;;;;;;;11.77;9.60;;;;;;;15.47;100.00;100168.47;5031319;28;20808;-82
2023/07/23 03:59:44;;;;;;;10.10;8.93;;;;;;;15.47;100.00;100169.31;5028857;28;20235;-81
2023/07/23 04:02:11;;;;;;;10.67;8.87;;;;;;;15.49;100.00;100171.84;5029360;28;20756;-82
2023/07/23 04:04:39;;;;;;;9.53;8.60;;;;;;;15.48;100.00;100162.94;5030234;28;20222;-81
2023/07/23 04:07:06;;;;;;;10.20;8.33;;;;;;;15.47;100.00;100153.19;5030809;28;20215;-81
2023/07/23 04:09:33;;;;;;;11.80;8.70;;;;;;;15.47;100.00;100147.84;5028706;28;20291;-82
2023/07/23 04:11:59;;;;;;;9.57;8.40;;;;;;;15.47;100.00;100147.84;5033255;28;20726;-82
2023/07/23 04:14:28;;;;;;;10.57;8.03;;;;;;;15.48;100.00;100141.47;5029152;28;20226;-81
2023/07/23 04:16:55;;;;;;;11.47;7.47;;;;;;;15.48;100.00;100133.44;5029277;28;20211;-80
2023/07/23 04:19:22;;;;;;;10.30;8.00;;;;;;;15.49;100.00;100135.13;5035744;28;20221;-81
2023/07/23 04:21:49;;;;;;;10.07;8.13;;;;;;;15.51;100.00;100138.53;5029317;28;20673;-81
2023/07/23 04:24:16;;;;;;;9.03;7.37;;;;;;;15.51;100.00;100129.63;5037284;28;20700;-81
2023/07/23 04:26:42;;;;;;;9.17;7.33;;;;;;;15.49;100.00;100127.06;5032783;28;20575;-83
2023/07/23 04:29:09;;;;;;;9.07;7.47;;;;;;;15.51;100.00;100129.63;5030768;28;20203;-83
2023/07/23 04:31:37;;;;;;;10.63;6.63;;;;;;;15.51;100.00;100119.75;5030546;28;20213;-82
2023/07/23 04:34:03;;;;;;;9.00;6.57;;;;;;;15.50;100.00;100110.00;5032887;28;20314;-82
2023/07/23 04:36:30;;;;;;;11.33;6.70;;;;;;;15.52;100.00;100118.75;5028723;28;20293;-83
2023/07/23 04:38:56;;;;;;;7.23;6.47;;;;;;;15.53;100.00;100106.19;5034238;28;20233;-82
2023/07/23 04:41:23;;;;;;;10.33;6.77;;;;;;;15.52;100.00;100110.69;5033419;28;20842;-82
2023/07/23 04:43:49;;;;;;;10.23;6.40;;;;;;;15.55;100.00;100109.56;5039438;28;20255;-82
2023/07/23 04:46:15;;;;;;;8.40;6.10;;;;;;;15.55;100.00;100115.81;5031389;28;20212;-83
2023/07/23 04:48:43;;;;;;;7.77;5.83;;;;;;;15.55;100.00;100110.44;5030626;28;20219;-83
2023/07/23 04:51:10;;;;;;;8.87;5.90;;;;;;;15.57;100.00;100110.31;5024954;28;20596;-84
2023/07/23 04:53:37;;;;;;;8.97;5.70;;;;;;;15.57;99.56;100104.94;5031632;28;20221;-83
2023/07/23 04:56:05;;;;;;;7.07;5.80;;;;;;;15.58;99.36;100103.97;5040050;28;20306;-84
2023/07/23 04:58:32;;;;;;;8.07;5.93;;;;;;;15.60;99.07;100105.47;5031146;28;20204;-83
2023/07/23 05:01:01;;;;;;;6.63;5.77;;;;;;;15.61;99.03;100095.59;5032391;28;20562;-84
2023/07/23 05:03:27;;;;;;;7.30;5.90;;;;;;;15.63;98.85;100105.19;5026564;28;20218;-81
2023/07/23 05:05:55;;;;;;;8.33;6.03;;;;;;;15.66;98.42;100101.38;5030375;28;20221;-82
2023/07/23 05:08:23;;;;;;;8.53;5.50;;;;;;;15.66;98.26;100104.06;5027956;28;20246;-82
2023/07/23 05:10:50;;;;;;;6.80;5.73;;;;;;;15.67;98.02;100095.03;5032673;28;20208;-82
2023/07/23 05:13:17;;;;;;;7.40;5.97;;;;;;;15.70;97.63;100092.06;5023092;28;20232;-81
2023/07/23 05:15:43;;;;;;;8.50;5.97;;;;;;;15.72;97.62;100095.47;5030310;28;20208;-82
2023/07/23 05:18:10;;;;;;;8.03;5.63;;;;;;;15.74;97.29;100090.78;5024755;28;20211;-83
2023/07/23 05:20:36;;;;;;;9.03;5.57;;;;;;;15.76;97.09;100093.34;5030260;28;20219;-82
2023/07/23 05:23:04;;;;;;;6.17;5.50;;;;;;;15.75;96.77;100089.81;5038970;28;20236;-81
2023/07/23 05:25:31;;;;;;;8.27;5.60;;;;;;;15.77;96.37;100093.16;5033830;28;20224;-81
2023/07/23 05:27:57;;;;;;;7.23;5.40;;;;;;;15.78;95.91;100086.81;5026567;28;20208;-81
2023/07/23 05:30:24;;;;;;;7.37;5.00;;;;;;;15.80;95.61;100087.50;5026304;28;20216;-82
2023/07/23 05:32:50;;;;;;;5.83;5.23;;;;;;;15.81;95.18;100089.22;5026890;28;20595;-81
2023/07/23 05:35:17;;;;;;;6.17;4.97;;;;;;;15.83;94.88;100073.81;5023196;28;20719;-81
2023/07/23 05:37:43;;;;;;;8.57;5.23;;;;;;;15.86;94.55;100078.03;5033590;28;20212;-81
2023/07/23 05:40:12;;;;;;;6.27;5.20;;;;;;;15.87;94.48;100067.16;5023969;28;20224;-81
2023/07/23 05:42:38;;;;;;;7.43;4.83;;;;;;;15.88;94.11;100068.84;5027786;28;20237;-80
2023/07/23 05:45:05;;;;;;;6.00;5.07;;;;;;;15.91;93.75;100075.78;5029729;28;20201;-83
2023/07/23 05:47:32;;;;;;;8.43;5.40;;;;;;;15.94;93.50;100062.88;5032484;28;20208;-80
2023/07/23 05:49:59;;;;;;;9.27;5.73;;;;;;;15.98;93.59;100060.75;5033123;28;20204;-81
2023/07/23 05:52:25;;;;;;;6.83;4.73;;;;;;;16.02;93.44;100058.63;5030024;28;20219;-82
2023/07/23 05:54:52;;;;;;;5.50;4.73;;;;;;;16.04;93.05;100054.81;5034450;28;20208;-81
2023/07/23 05:57:19;;;;;;;9.97;5.93;;;;;;;16.07;92.74;100059.06;5027707;28;20592;-81
2023/07/23 05:59:46;;;;;;;8.80;5.20;;;;;;;16.10;92.39;100053.38;5034298;28;20231;-81
2023/07/23 06:02:12;;;;;;;7.80;5.40;;;;;;;16.14;92.20;100060.13;5021779;28;20217;-82
2023/07/23 06:04:39;;;;;;;6.50;5.00;;;;;;;16.18;92.31;100050.78;5030506;28;20225;-80
2023/07/23 06:07:06;;;;;;;7.00;5.37;;;;;;;16.25;92.26;100047.38;5025391;28;20302;-82
2023/07/23 06:09:32;;;;;;;8.63;5.33;;;;;;;16.32;92.08;100040.41;5034342;28;20205;-81
2023/07/23 06:11:59;;;;;;;7.53;5.03;;;;;;;16.41;91.95;100044.06;5031329;28;20216;-81
2023/07/23 06:14:27;;;;;;;7.60;5.83;;;;;;;16.49;91.93;100037.91;5031097;28;20229;-82
2023/07/23 06:16:53;;;;;;;7.03;5.07;;;;;;;16.57;91.58;100033.50;5032059;28;20211;-82
2023/07/23 06:19:19;;;;;;;9.83;5.47;;;;;;;16.67;91.14;100030.75;5033470;28;20224;-81
2023/07/23 06:21:46;;;;;;;8.50;5.40;;;;;;;16.75;90.66;100024.66;5030562;28;20312;-82
2023/07/23 06:24:12;;;;;;;9.63;4.90;;;;;;;16.84;89.95;100019.19;5030799;28;20611;-81
2023/07/23 06:26:39;;;;;;;4.80;4.33;;;;;;;16.93;89.68;100018.28;5032021;28;20548;-82
2023/07/23 06:29:06;;;;;;;9.13;5.30;;;;;;;17.07;89.82;100008.81;5032082;28;20203;-82
2023/07/23 06:31:34;;;;;;;6.60;4.80;;;;;;;17.23;89.90;99998.19;5026055;28;20652;-81
2023/07/23 06:34:00;;;;;;;8.10;4.43;;;;;;;17.39;89.26;100000.16;5039217;28;20233;-83
2023/07/23 06:36:26;;;;;;;6.93;3.53;;;;;;;17.52;87.90;99992.56;5031394;28;20204;-80
2023/07/23 06:38:53;;;;;;;4.83;3.60;;;;;;;17.63;86.32;99989.59;5031627;28;20209;-82
2023/07/23 06:41:19;;;;;;;4.73;3.73;;;;;;;17.72;83.50;100001.31;5036856;28;20207;-82
2023/07/23 06:43:46;;;;;;;4.27;3.80;;;;;;;17.76;80.55;99999.97;5031312;28;20228;-82
2023/07/23 06:46:17;;;;;;;4.40;3.37;;;;;;;17.82;78.75;99993.94;5027498;28;20219;-83
2023/07/23 06:48:45;;;;;;;5.17;3.80;;;;;;;17.89;77.11;99995.00;5030301;28;20211;-83
2023/07/23 06:51:11;;;;;;;7.63;4.00;;;;;;;17.93;75.21;99996.34;5029866;28;20220;-81
2023/07/23 06:53:38;;;;;;;4.70;3.83;;;;;;;18.01;74.56;99996.41;5034929;28;20224;-81
2023/07/23 06:56:06;;;;;;;5.77;3.73;;;;;;;18.09;74.13;99992.94;5031761;28;20678;-81
2023/07/23 06:58:34;;;;;;;5.50;3.70;;;;;;;18.17;73.54;99992.09;5034200;28;20625;-82
2023/07/23 07:01:01;;;;;;;5.63;3.47;;;;;;;18.26;73.61;99992.00;5031847;28;20231;-81
2023/07/23 07:03:28;;;;;;;5.37;3.50;;;;;;;18.35;72.58;99982.91;5031939;28;20227;-82
2023/07/23 07:05:55;;;;;;;4.03;3.60;;;;;;;18.42;71.85;99984.97;5028383;28;20221;-81
2023/07/23 07:08:22;;;;;;;4.73;3.20;;;;;;;18.47;71.11;99988.84;5023952;28;20676;-80
2023/07/23 07:10:49;;;;;;;4.93;3.23;;;;;;;18.56;71.56;99978.94;5027388;28;20208;-82
2023/07/23 07:13:16;;;;;;;6.03;3.63;;;;;;;18.66;70.22;99971.56;5032291;28;20237;-80
2023/07/23 07:15:43;;;;;;;3.90;3.50;;;;;;;18.69;70.24;99972.09;5030061;28;20217;-82
2023/07/23 07:18:09;;;;;;;4.67;4.00;;;;;;;18.75;69.96;99967.03;5027028;28;20588;-81
2023/07/23 07:20:36;;;;;;;5.67;3.40;;;;;;;18.82;70.28;99965.34;5026400;28;20586;-82
2023/07/23 07:23:03;;;;;;;4.80;3.70;;;;;;;18.92;70.03;99964.19;5033918;28;20232;-82
2023/07/23 07:25:30;;;;;;;6.23;3.60;;;;;;;19.03;69.38;99963.00;5031334;28;20677;-82
2023/07/23 07:27:56;;;;;;;6.60;3.30;;;;;;;19.11;69.37;99963.03;5029572;28;20213;-81
2023/07/23 07:30:23;;;;;;;5.57;3.70;;;;;;;19.23;68.83;99958.97;5034130;28;20207;-81
2023/07/23 07:32:49;;;;;;;6.33;3.47;;;;;;;19.32;67.97;99957.13;5027646;28;20720;-81
2023/07/23 07:35:16;;;;;;;3.90;3.20;;;;;;;19.41;68.09;99951.53;5034273;28;20212;-82
2023/07/23 07:37:42;;;;;;;4.80;3.80;;;;;;;19.52;68.47;99960.34;5030748;28;20220;-84
2023/07/23 07:40:13;;;;;;;4.50;3.27;;;;;;;19.65;67.56;99949.84;5032833;28;20244;-83
2023/07/23 07:42:39;;;;;;;5.43;4.23;;;;;;;19.75;67.12;99945.91;5030824;28;20223;-82
2023/07/23 07:45:07;;;;;;;6.67;3.20;;;;;;;19.88;65.74;99950.78;5031452;28;20214;-83
2023/07/23 07:47:33;;;;;;;5.87;3.43;;;;;;;20.00;65.52;99951.25;5032860;28;20664;-83
2023/07/23 07:50:00;;;;;;;4.57;3.30;;;;;;;20.10;65.11;99947.31;5030681;28;20638;-82
2023/07/23 07:52:26;;;;;;;4.73;4.07;;;;;;;20.25;65.15;99943.88;5031527;28;20213;-81
2023/07/23 07:54:53;;;;;;;5.75;3.15;;;;;;;20.36;63.73;99947.06;5030644;28;20216;-81
2023/07/23 07:57:21;;;;;;;3.92;3.33;;;;;;;20.41;62.84;99938.44;5031496;28;20221;-82
2023/07/23 07:59:48;;;;;;;4.38;3.40;;;;;;;20.47;62.75;99935.00;5032458;28;20233;-82
2023/07/23 08:02:15;;;;;;;4.72;3.03;;;;;;;20.53;61.87;99934.28;5031229;28;20202;-81
2023/07/23 08:04:42;;;;;;;4.53;3.17;;;;;;;20.57;61.29;99932.91;5029656;28;20209;-82
2023/07/23 08:07:09;;;;;;;4.75;3.53;;;;;;;20.61;61.43;99928.81;5031914;28;20210;-82
2023/07/23 08:09:38;;;;;;;5.68;3.25;;;;;;;20.67;61.55;99925.41;5028422;28;20214;-82
2023/07/23 08:12:06;;;;;;;6.90;3.30;;;;;;;20.72;60.94;99923.00;5034090;28;20662;-83
2023/07/23 08:14:38;;;;;;;4.15;3.63;;;;;;;20.77;61.13;99930.59;5027577;28;20234;-81
2023/07/23 08:17:05;;;;;;;4.53;3.30;;;;;;;20.86;61.73;99923.25;5031337;28;20210;-81
2023/07/23 08:19:32;;;;;;;5.70;3.35;;;;;;;20.92;61.18;99926.06;5035562;28;20216;-82
2023/07/23 08:21:59;;;;;;;5.13;3.15;;;;;;;21.00;61.32;99927.84;5038066;28;20217;-84
2023/07/23 08:24:26;;;;;;;8.18;2.97;;;;;;;21.08;60.53;99916.97;5032098;28;20236;-83
2023/07/23 08:26:56;;;;;;;3.70;2.97;;;;;;;21.16;59.92;99916.88;5031501;28;20213;-82
2023/07/23 08:29:25;;;;;;;4.30;3.40;;;;;;;21.26;60.02;99912.09;5023987;28;20209;-81
2023/07/23 08:31:56;;;;;;;5.43;3.17;;;;;;;21.36;60.11;99904.53;5033764;28;21306;-82
2023/07/23 08:34:25;;;;;;;5.18;3.58;;;;;;;21.53;59.59;99907.06;5031059;28;20230;-81
2023/07/23 08:36:52;;;;;;;3.50;3.10;;;;;;;21.64;58.93;99912.91;5034564;28;20301;-82
2023/07/23 08:39:19;;;;;;;4.45;3.03;;;;;;;21.76;57.86;99921.38;5032971;28;20218;-81
2023/07/23 08:42:06;;;;;;;4.85;3.50;;;;;;;21.87;58.03;99914.66;5026868;28;20221;-81
2023/07/23 08:45:00;;;;;;;4.05;3.63;;;;;;;22.01;57.74;99920.13;5032527;28;20442;-82
2023/07/23 08:47:30;;;;;;;3.72;2.97;;;;;;;22.10;55.60;99916.25;5028981;28;20198;-83
2023/07/23 08:49:59;;;;;;;3.33;2.97;;;;;;;22.14;55.29;99912.16;5031995;28;20808;-82
2023/07/23 08:52:27;;;;;;;3.90;2.88;;;;;;;22.19;55.13;99908.88;5031560;28;20662;-82
2023/07/23 08:54:56;;;;;;;4.57;3.17;;;;;;;22.22;54.55;99907.63;5032122;28;20214;-82
2023/07/23 08:57:22;;;;;;;3.33;3.03;;;;;;;22.25;54.55;99899.09;5033888;28;20206;-81
2023/07/23 08:59:51;;;;;;;3.95;3.08;;;;;;;22.31;55.21;99895.66;5030210;28;20202;-82
2023/07/23 09:02:20;;;;;;;3.20;2.63;;;;;;;22.36;54.56;99898.63;5029693;28;20317;-82
2023/07/23 09:04:48;;;;;;;3.53;2.67;;;;;;;22.41;53.01;99902.44;5027199;28;20319;-82
2023/07/23 09:07:17;;;;;;;2.67;2.22;;;;;;;22.45;53.54;99892.03;5030729;28;20225;-82
2023/07/23 09:09:43;;;;;;;2.30;2.10;;;;;;;22.48;52.23;99900.66;5031702;28;20210;-82
2023/07/23 09:12:10;;;;;;;2.70;2.45;;;;;;;22.51;52.20;99894.84;5034783;28;20210;-81
2023/07/23 09:14:42;;;;;;;3.20;2.67;;;;;;;22.57;52.42;99901.38;5031251;28;20222;-81
2023/07/23 09:17:16;;;;;;;3.33;2.58;;;;;;;22.62;50.20;99890.75;5033453;28;20205;-82
2023/07/23 09:19:43;;;;;;;2.70;2.35;;;;;;;22.61;48.85;99885.53;5033336;28;20201;-81
2023/07/23 09:22:11;;;;;;;2.67;2.25;;;;;;;22.61;47.76;99896.38;5031179;28;20202;-83
2023/07/23 09:24:38;;;;;;;3.80;2.50;;;;;;;22.61;47.51;99890.94;5031223;28;20229;-81
2023/07/23 09:27:05;;;;;;;3.80;2.35;;;;;;;22.63;47.66;99894.31;5031626;28;20199;-82
2023/07/23 09:29:35;;;;;;;2.47;1.90;;;;;;;22.66;47.32;99894.78;5030653;28;20210;-82
2023/07/23 09:32:02;;;;;;;2.85;2.00;;;;;;;22.70;47.09;99897.94;5029303;28;20196;-81
2023/07/23 09:34:28;;;;;;;2.42;1.98;;;;;;;22.75;47.25;99898.22;5032095;28;20218;-82
2023/07/23 09:36:55;;;;;;;2.47;2.00;;;;;;;22.79;46.70;99896.81;5030344;28;20205;-82
2023/07/23 09:39:27;;;;;;;2.13;1.80;;;;;;;22.85;45.54;99896.88;5031655;28;20202;-82
2023/07/23 09:41:54;;;;;;;3.42;2.90;;;;;;;22.89;44.37;99891.06;5030593;28;20485;-81
2023/07/23 09:44:25;;;;;;;2.90;2.60;;;;;;;22.83;44.68;99893.53;5032202;28;20281;-83
2023/07/23 09:46:52;;;;;;;5.72;2.00;;;;;;;22.82;44.47;99889.13;5029661;28;20372;-83
2023/07/23 09:49:24;;;;;;;4.30;1.98;;;;;;;22.83;44.82;99885.38;5030040;28;20690;-82
2023/07/23 09:51:52;;;;;;;2.60;2.25;;;;;;;22.90;44.28;99887.31;5034166;28;20271;-83
2023/07/23 09:54:18;;;;;;;3.78;2.40;;;;;;;22.92;43.78;99885.25;5031256;28;20223;-82
2023/07/23 09:56:46;;;;;;;3.90;2.10;;;;;;;22.91;44.63;99894.44;5026013;28;20930;-82
2023/07/23 09:59:13;;;;;;;2.95;2.10;;;;;;;22.96;45.09;99889.22;5028467;28;20207;-83
2023/07/23 10:01:40;;;;;;;3.22;2.30;;;;;;;22.99;44.71;99883.41;5024781;28;20225;-82
2023/07/23 10:04:07;;;;;;;3.28;2.17;;;;;;;23.03;44.79;99882.84;5030717;28;20260;-82
2023/07/23 10:06:34;;;;;;;2.75;2.25;;;;;;;23.06;44.62;99873.47;5029195;28;20217;-82
2023/07/23 10:09:03;;;;;;;2.20;1.90;;;;;;;23.10;44.27;99875.59;5029602;28;20575;-83
2023/07/23 10:11:29;;;;;;;2.30;2.10;;;;;;;23.12;44.62;99870.78;5031557;28;20283;-83
2023/07/23 10:13:58;;;;;;;3.25;2.20;;;;;;;23.20;43.97;99877.94;5028393;28;20769;-82
2023/07/23 10:16:27;;;;;;;3.08;2.78;;;;;;;23.22;44.30;99886.75;5026588;28;20206;-82
2023/07/23 10:18:56;;;;;;;4.50;2.33;;;;;;;23.29;44.03;99887.63;5023863;28;20210;-82
2023/07/23 10:21:22;;;;;;;2.95;2.20;;;;;;;23.33;43.98;99885.34;5026971;28;20217;-83
2023/07/23 10:23:55;;;;;;;4.57;2.53;;;;;;;23.37;44.21;99886.66;5030481;28;20238;-83
2023/07/23 10:26:24;;;;;;;2.92;2.63;;;;;;;23.39;43.58;99890.00;5028145;28;20225;-81
2023/07/23 10:28:52;;;;;;;4.32;2.30;;;;;;;23.42;43.35;99884.19;5031417;28;20202;-83
2023/07/23 10:31:24;;;;;;;2.28;2.05;;;;;;;23.49;43.75;99896.75;5030494;28;20209;-83
2023/07/23 10:33:51;;;;;;;3.45;2.40;;;;;;;23.54;43.72;99890.75;5031349;28;20221;-84
2023/07/23 10:36:24;;;;;;;2.58;2.38;;;;;;;23.59;44.21;99891.00;5035240;28;20206;-85
2023/07/23 10:39:22;;;;;;;3.05;2.50;;;;;;;23.61;44.06;99905.25;5031571;28;20198;-83
2023/07/23 10:41:53;;;;;;;2.78;2.25;;;;;;;23.60;43.59;99897.28;5033004;28;20236;-84
2023/07/23 10:44:24;;;;;;;3.40;2.55;;;;;;;23.68;44.16;99903.38;5030959;28;20230;-83
2023/07/23 10:46:56;;;;;;;2.90;2.55;;;;;;;23.76;43.84;99907.84;5031176;28;20700;-83
2023/07/23 10:49:27;;;;;;;2.78;2.35;;;;;;;23.77;44.04;99910.38;5028263;28;20228;-82
2023/07/23 10:52:13;;;;;;;3.13;2.30;;;;;;;23.75;44.04;99911.59;5033515;28;20209;-84
2023/07/23 10:54:40;;;;;;;3.28;2.55;;;;;;;23.70;44.37;99924.94;5036569;28;20252;-83
2023/07/23 10:57:07;;;;;;;6.55;2.50;;;;;;;23.63;44.40;99918.66;5033449;28;20208;-84
2023/07/23 10:59:35;;;;;;;3.25;2.47;;;;;;;23.57;44.57;99911.28;5034036;28;20336;-83
2023/07/23 11:04:59;;;;;;;3.17;2.60;;;;;;;23.52;45.49;99906.44;4994192;28;20230;-84
2023/07/23 11:07:32;;;;;;;2.72;2.33;;;;;;;23.51;45.41;99921.03;5028609;28;20311;-83
2023/07/23 11:10:19;;;;;;;2.78;2.35;;;;;;;23.50;45.25;99911.19;5035496;28;20233;-84
2023/07/23 11:12:46;;;;;;;3.03;2.38;;;;;;;23.48;45.28;99910.53;5031952;28;20222;-83
2023/07/23 11:15:17;;;;;;;2.50;2.30;;;;;;;23.41;45.61;99912.38;5029160;28;20210;-85
2023/07/23 11:17:45;;;;;;;2.58;1.92;;;;;;;23.38;45.86;99916.34;5027975;28;20211;-83
2023/07/23 11:20:12;;;;;;;2.72;2.38;;;;;;;23.41;46.00;99920.53;5033750;28;20210;-85
2023/07/23 11:22:50;;;;;;;2.55;2.03;;;;;;;23.41;45.96;99909.66;5031419;28;20233;-84
2023/07/23 11:25:17;;;;;;;3.45;2.30;;;;;;;23.42;45.99;99914.91;5034845;28;20553;-85
2023/07/23 11:27:44;;;;;;;2.85;2.47;;;;;;;23.46;46.61;99913.50;5028911;28;20248;-83